sensor_id;sensor_type;location;lat;lon;timestamp;P1;durP1;ratioP1;P2;durP2;ratioP2
26082;SDS011;13848;49.018;12.078;2023-10-31T00:00:23;2.70;;;1.85;;
26082;SDS011;13848;49.018;12.078;2023-10-31T00:02:49;4.72;;;2.03;;
26082;SDS011;13848;49.018;12.078;2023-10-31T00:05:15;4.60;;;1.90;;
26082;SDS011;13848;49.018;12.078;2023-10-31T00:07:41;3.22;;;2.10;;
26082;SDS011;13848;49.018;12.078;2023-10-31T00:10:07;2.13;;;1.63;;
26082;SDS011;13848;49.018;12.078;2023-10-31T00:12:34;4.40;;;1.70;;
26082;SDS011;13848;49.018;12.078;2023-10-31T00:14:59;3.05;;;1.92;;
26082;SDS011;13848;49.018;12.078;2023-10-31T00:17:27;3.75;;;2.10;;
26082;SDS011;13848;49.018;12.078;2023-10-31T00:19:53;3.70;;;2.25;;
26082;SDS011;13848;49.018;12.078;2023-10-31T00:22:19;2.22;;;2.03;;
26082;SDS011;13848;49.018;12.078;2023-10-31T00:24:45;3.28;;;1.90;;
26082;SDS011;13848;49.018;12.078;2023-10-31T00:27:11;2.92;;;2.03;;
26082;SDS011;13848;49.018;12.078;2023-10-31T00:29:37;2.20;;;1.75;;
26082;SDS011;13848;49.018;12.078;2023-10-31T00:32:03;2.85;;;1.73;;
26082;SDS011;13848;49.018;12.078;2023-10-31T00:34:30;4.30;;;1.85;;
26082;SDS011;13848;49.018;12.078;2023-10-31T00:36:56;1.98;;;1.52;;
26082;SDS011;13848;49.018;12.078;2023-10-31T00:39:22;3.40;;;1.90;;
26082;SDS011;13848;49.018;12.078;2023-10-31T00:41:48;3.25;;;1.88;;
26082;SDS011;13848;49.018;12.078;2023-10-31T00:44:14;2.75;;;1.92;;
26082;SDS011;13848;49.018;12.078;2023-10-31T00:46:40;3.97;;;1.88;;
26082;SDS011;13848;49.018;12.078;2023-10-31T00:49:06;2.65;;;1.67;;
26082;SDS011;13848;49.018;12.078;2023-10-31T00:51:33;2.95;;;1.70;;
26082;SDS011;13848;49.018;12.078;2023-10-31T00:53:59;1.50;;;1.40;;
26082;SDS011;13848;49.018;12.078;2023-10-31T00:56:25;2.67;;;1.77;;
26082;SDS011;13848;49.018;12.078;2023-10-31T00:58:51;1.90;;;1.52;;
26082;SDS011;13848;49.018;12.078;2023-10-31T01:01:17;2.22;;;1.50;;
26082;SDS011;13848;49.018;12.078;2023-10-31T01:03:43;2.97;;;1.60;;
26082;SDS011;13848;49.018;12.078;2023-10-31T01:06:09;1.95;;;1.40;;
26082;SDS011;13848;49.018;12.078;2023-10-31T01:08:37;1.88;;;1.50;;
26082;SDS011;13848;49.018;12.078;2023-10-31T01:11:03;1.85;;;1.45;;
26082;SDS011;13848;49.018;12.078;2023-10-31T01:13:29;3.70;;;1.50;;
26082;SDS011;13848;49.018;12.078;2023-10-31T01:15:55;1.67;;;1.30;;
26082;SDS011;13848;49.018;12.078;2023-10-31T01:18:20;1.45;;;1.35;;
26082;SDS011;13848;49.018;12.078;2023-10-31T01:20:46;1.92;;;1.42;;
26082;SDS011;13848;49.018;12.078;2023-10-31T01:23:12;1.77;;;1.48;;
26082;SDS011;13848;49.018;12.078;2023-10-31T01:25:40;3.97;;;1.60;;
26082;SDS011;13848;49.018;12.078;2023-10-31T01:28:06;1.45;;;1.30;;
26082;SDS011;13848;49.018;12.078;2023-10-31T01:30:32;1.70;;;1.50;;
26082;SDS011;13848;49.018;12.078;2023-10-31T01:32:58;1.50;;;1.40;;
26082;SDS011;13848;49.018;12.078;2023-10-31T01:35:23;1.85;;;1.20;;
26082;SDS011;13848;49.018;12.078;2023-10-31T01:37:49;1.40;;;1.30;;
26082;SDS011;13848;49.018;12.078;2023-10-31T01:40:15;1.08;;;1.00;;
26082;SDS011;13848;49.018;12.078;2023-10-31T01:42:43;1.10;;;1.00;;
26082;SDS011;13848;49.018;12.078;2023-10-31T01:45:09;4.10;;;1.10;;
26082;SDS011;13848;49.018;12.078;2023-10-31T01:47:36;1.52;;;0.93;;
26082;SDS011;13848;49.018;12.078;2023-10-31T01:50:06;2.65;;;1.00;;
26082;SDS011;13848;49.018;12.078;2023-10-31T01:52:33;1.20;;;0.95;;
26082;SDS011;13848;49.018;12.078;2023-10-31T01:54:59;1.02;;;0.80;;
26082;SDS011;13848;49.018;12.078;2023-10-31T01:57:26;1.00;;;0.90;;
26082;SDS011;13848;49.018;12.078;2023-10-31T01:59:54;1.20;;;1.10;;
26082;SDS011;13848;49.018;12.078;2023-10-31T02:02:20;1.58;;;1.17;;
26082;SDS011;13848;49.018;12.078;2023-10-31T02:04:48;0.98;;;0.85;;
26082;SDS011;13848;49.018;12.078;2023-10-31T02:07:15;1.00;;;0.90;;
26082;SDS011;13848;49.018;12.078;2023-10-31T02:09:41;2.25;;;1.02;;
26082;SDS011;13848;49.018;12.078;2023-10-31T02:12:07;3.22;;;1.20;;
26082;SDS011;13848;49.018;12.078;2023-10-31T02:14:33;1.20;;;1.00;;
26082;SDS011;13848;49.018;12.078;2023-10-31T02:17:00;2.75;;;1.00;;
26082;SDS011;13848;49.018;12.078;2023-10-31T02:19:26;2.78;;;1.40;;
26082;SDS011;13848;49.018;12.078;2023-10-31T02:21:53;1.20;;;1.08;;
26082;SDS011;13848;49.018;12.078;2023-10-31T02:24:19;1.40;;;1.20;;
26082;SDS011;13848;49.018;12.078;2023-10-31T02:26:45;3.83;;;1.20;;
26082;SDS011;13848;49.018;12.078;2023-10-31T02:29:11;1.40;;;1.20;;
26082;SDS011;13848;49.018;12.078;2023-10-31T02:31:37;1.85;;;1.65;;
26082;SDS011;13848;49.018;12.078;2023-10-31T02:34:03;2.08;;;1.33;;
26082;SDS011;13848;49.018;12.078;2023-10-31T02:36:29;1.33;;;1.17;;
26082;SDS011;13848;49.018;12.078;2023-10-31T02:38:56;10.30;;;1.35;;
26082;SDS011;13848;49.018;12.078;2023-10-31T02:41:22;1.20;;;1.10;;
26082;SDS011;13848;49.018;12.078;2023-10-31T02:43:48;1.35;;;1.10;;
26082;SDS011;13848;49.018;12.078;2023-10-31T02:46:14;1.38;;;1.08;;
26082;SDS011;13848;49.018;12.078;2023-10-31T02:48:40;1.13;;;0.98;;
26082;SDS011;13848;49.018;12.078;2023-10-31T02:51:06;1.63;;;1.10;;
26082;SDS011;13848;49.018;12.078;2023-10-31T02:53:33;1.05;;;0.90;;
26082;SDS011;13848;49.018;12.078;2023-10-31T02:56:00;0.95;;;0.80;;
26082;SDS011;13848;49.018;12.078;2023-10-31T02:58:26;3.08;;;0.85;;
26082;SDS011;13848;49.018;12.078;2023-10-31T03:00:52;0.80;;;0.80;;
26082;SDS011;13848;49.018;12.078;2023-10-31T03:03:18;0.70;;;0.70;;
26082;SDS011;13848;49.018;12.078;2023-10-31T03:05:44;0.80;;;0.80;;
26082;SDS011;13848;49.018;12.078;2023-10-31T03:08:10;1.90;;;0.90;;
26082;SDS011;13848;49.018;12.078;2023-10-31T03:10:37;0.80;;;0.80;;
26082;SDS011;13848;49.018;12.078;2023-10-31T03:13:05;1.10;;;0.85;;
26082;SDS011;13848;49.018;12.078;2023-10-31T03:15:31;1.00;;;0.90;;
26082;SDS011;13848;49.018;12.078;2023-10-31T03:17:57;1.17;;;0.90;;
26082;SDS011;13848;49.018;12.078;2023-10-31T03:20:23;1.75;;;0.80;;
26082;SDS011;13848;49.018;12.078;2023-10-31T03:22:49;0.60;;;0.60;;
26082;SDS011;13848;49.018;12.078;2023-10-31T03:25:14;0.75;;;0.60;;
26082;SDS011;13848;49.018;12.078;2023-10-31T03:27:40;0.82;;;0.70;;
26082;SDS011;13848;49.018;12.078;2023-10-31T03:30:08;0.85;;;0.80;;
26082;SDS011;13848;49.018;12.078;2023-10-31T03:32:35;0.88;;;0.73;;
26082;SDS011;13848;49.018;12.078;2023-10-31T03:35:01;0.95;;;0.68;;
26082;SDS011;13848;49.018;12.078;2023-10-31T03:37:27;1.20;;;0.80;;
26082;SDS011;13848;49.018;12.078;2023-10-31T03:39:53;0.55;;;0.55;;
26082;SDS011;13848;49.018;12.078;2023-10-31T03:42:19;1.05;;;0.85;;
26082;SDS011;13848;49.018;12.078;2023-10-31T03:44:44;1.45;;;0.90;;
26082;SDS011;13848;49.018;12.078;2023-10-31T03:47:12;0.70;;;0.70;;
26082;SDS011;13848;49.018;12.078;2023-10-31T03:49:39;0.95;;;0.88;;
26082;SDS011;13848;49.018;12.078;2023-10-31T03:52:05;2.20;;;1.10;;
26082;SDS011;13848;49.018;12.078;2023-10-31T03:54:31;1.08;;;0.90;;
26082;SDS011;13848;49.018;12.078;2023-10-31T03:56:57;1.35;;;0.80;;
26082;SDS011;13848;49.018;12.078;2023-10-31T03:59:23;1.00;;;0.90;;
26082;SDS011;13848;49.018;12.078;2023-10-31T04:01:49;1.38;;;1.02;;
26082;SDS011;13848;49.018;12.078;2023-10-31T04:04:16;0.88;;;0.75;;
26082;SDS011;13848;49.018;12.078;2023-10-31T04:06:42;0.73;;;0.60;;
26082;SDS011;13848;49.018;12.078;2023-10-31T04:09:08;0.95;;;0.68;;
26082;SDS011;13848;49.018;12.078;2023-10-31T04:11:34;0.70;;;0.70;;
26082;SDS011;13848;49.018;12.078;2023-10-31T04:14:00;0.52;;;0.50;;
26082;SDS011;13848;49.018;12.078;2023-10-31T04:16:26;0.50;;;0.50;;
26082;SDS011;13848;49.018;12.078;2023-10-31T04:18:52;0.68;;;0.52;;
26082;SDS011;13848;49.018;12.078;2023-10-31T04:21:19;0.50;;;0.50;;
26082;SDS011;13848;49.018;12.078;2023-10-31T04:23:45;0.50;;;0.50;;
26082;SDS011;13848;49.018;12.078;2023-10-31T04:26:11;0.63;;;0.40;;
26082;SDS011;13848;49.018;12.078;2023-10-31T04:28:37;1.08;;;0.50;;
26082;SDS011;13848;49.018;12.078;2023-10-31T04:31:03;0.50;;;0.40;;
26082;SDS011;13848;49.018;12.078;2023-10-31T04:33:29;0.68;;;0.40;;
26082;SDS011;13848;49.018;12.078;2023-10-31T04:35:55;0.73;;;0.50;;
26082;SDS011;13848;49.018;12.078;2023-10-31T04:38:23;0.73;;;0.57;;
26082;SDS011;13848;49.018;12.078;2023-10-31T04:40:49;0.75;;;0.40;;
26082;SDS011;13848;49.018;12.078;2023-10-31T04:43:14;0.50;;;0.50;;
26082;SDS011;13848;49.018;12.078;2023-10-31T04:45:41;1.85;;;0.68;;
26082;SDS011;13848;49.018;12.078;2023-10-31T04:48:07;1.27;;;0.50;;
26082;SDS011;13848;49.018;12.078;2023-10-31T04:50:32;0.60;;;0.47;;
26082;SDS011;13848;49.018;12.078;2023-10-31T04:52:58;0.80;;;0.50;;
26082;SDS011;13848;49.018;12.078;2023-10-31T04:55:26;0.47;;;0.47;;
26082;SDS011;13848;49.018;12.078;2023-10-31T04:57:52;0.52;;;0.50;;
26082;SDS011;13848;49.018;12.078;2023-10-31T05:00:18;1.10;;;0.50;;
26082;SDS011;13848;49.018;12.078;2023-10-31T05:02:44;0.40;;;0.40;;
26082;SDS011;13848;49.018;12.078;2023-10-31T05:05:09;0.50;;;0.38;;
26082;SDS011;13848;49.018;12.078;2023-10-31T05:07:35;0.95;;;0.50;;
26082;SDS011;13848;49.018;12.078;2023-10-31T05:10:01;1.20;;;0.40;;
26082;SDS011;13848;49.018;12.078;2023-10-31T05:12:29;1.33;;;0.52;;
26082;SDS011;13848;49.018;12.078;2023-10-31T05:14:55;0.43;;;0.43;;
26082;SDS011;13848;49.018;12.078;2023-10-31T05:17:21;2.33;;;0.43;;
26082;SDS011;13848;49.018;12.078;2023-10-31T05:19:46;0.40;;;0.40;;
26082;SDS011;13848;49.018;12.078;2023-10-31T05:22:12;0.63;;;0.47;;
26082;SDS011;13848;49.018;12.078;2023-10-31T05:24:38;2.55;;;0.60;;
26082;SDS011;13848;49.018;12.078;2023-10-31T05:27:04;0.60;;;0.60;;
26082;SDS011;13848;49.018;12.078;2023-10-31T05:29:32;1.70;;;0.43;;
26082;SDS011;13848;49.018;12.078;2023-10-31T05:31:57;0.80;;;0.52;;
26082;SDS011;13848;49.018;12.078;2023-10-31T05:34:23;0.93;;;0.40;;
26082;SDS011;13848;49.018;12.078;2023-10-31T05:36:49;0.40;;;0.40;;
26082;SDS011;13848;49.018;12.078;2023-10-31T05:39:15;0.50;;;0.50;;
26082;SDS011;13848;49.018;12.078;2023-10-31T05:41:41;0.50;;;0.50;;
26082;SDS011;13848;49.018;12.078;2023-10-31T05:44:07;0.40;;;0.40;;
26082;SDS011;13848;49.018;12.078;2023-10-31T05:46:38;0.70;;;0.50;;
26082;SDS011;13848;49.018;12.078;2023-10-31T05:49:05;0.85;;;0.50;;
26082;SDS011;13848;49.018;12.078;2023-10-31T05:51:32;1.65;;;0.70;;
26082;SDS011;13848;49.018;12.078;2023-10-31T05:53:57;1.23;;;0.80;;
26082;SDS011;13848;49.018;12.078;2023-10-31T05:56:23;0.90;;;0.70;;
26082;SDS011;13848;49.018;12.078;2023-10-31T05:58:49;1.23;;;0.60;;
26082;SDS011;13848;49.018;12.078;2023-10-31T06:01:15;0.60;;;0.60;;
26082;SDS011;13848;49.018;12.078;2023-10-31T06:03:43;1.92;;;1.10;;
26082;SDS011;13848;49.018;12.078;2023-10-31T06:06:09;1.33;;;0.80;;
26082;SDS011;13848;49.018;12.078;2023-10-31T06:08:35;1.73;;;0.80;;
26082;SDS011;13848;49.018;12.078;2023-10-31T06:11:01;3.45;;;0.95;;
26082;SDS011;13848;49.018;12.078;2023-10-31T06:13:28;1.05;;;0.60;;
26082;SDS011;13848;49.018;12.078;2023-10-31T06:15:54;2.15;;;0.70;;
26082;SDS011;13848;49.018;12.078;2023-10-31T06:18:21;0.60;;;0.60;;
26082;SDS011;13848;49.018;12.078;2023-10-31T06:20:48;0.85;;;0.65;;
26082;SDS011;13848;49.018;12.078;2023-10-31T06:23:14;0.90;;;0.63;;
26082;SDS011;13848;49.018;12.078;2023-10-31T06:25:40;3.65;;;0.70;;
26082;SDS011;13848;49.018;12.078;2023-10-31T06:28:06;0.40;;;0.40;;
26082;SDS011;13848;49.018;12.078;2023-10-31T06:30:32;0.98;;;0.60;;
26082;SDS011;13848;49.018;12.078;2023-10-31T06:32:58;3.00;;;0.60;;
26082;SDS011;13848;49.018;12.078;2023-10-31T06:35:24;0.60;;;0.60;;
26082;SDS011;13848;49.018;12.078;2023-10-31T06:37:51;0.85;;;0.82;;
26082;SDS011;13848;49.018;12.078;2023-10-31T06:40:17;2.72;;;0.70;;
26082;SDS011;13848;49.018;12.078;2023-10-31T06:42:43;1.27;;;0.50;;
26082;SDS011;13848;49.018;12.078;2023-10-31T06:45:09;0.90;;;0.50;;
26082;SDS011;13848;49.018;12.078;2023-10-31T06:47:35;0.70;;;0.50;;
26082;SDS011;13848;49.018;12.078;2023-10-31T06:50:01;0.80;;;0.50;;
26082;SDS011;13848;49.018;12.078;2023-10-31T06:52:27;0.40;;;0.40;;
26082;SDS011;13848;49.018;12.078;2023-10-31T06:54:54;0.65;;;0.52;;
26082;SDS011;13848;49.018;12.078;2023-10-31T06:57:20;1.60;;;0.70;;
26082;SDS011;13848;49.018;12.078;2023-10-31T06:59:46;2.05;;;0.98;;
26082;SDS011;13848;49.018;12.078;2023-10-31T07:02:12;1.17;;;0.70;;
26082;SDS011;13848;49.018;12.078;2023-10-31T07:04:38;1.15;;;0.60;;
26082;SDS011;13848;49.018;12.078;2023-10-31T07:07:04;1.65;;;0.80;;
26082;SDS011;13848;49.018;12.078;2023-10-31T07:09:38;1.45;;;0.75;;
26082;SDS011;13848;49.018;12.078;2023-10-31T07:12:04;0.70;;;0.65;;
26082;SDS011;13848;49.018;12.078;2023-10-31T07:14:31;1.55;;;0.80;;
26082;SDS011;13848;49.018;12.078;2023-10-31T07:16:56;0.80;;;0.70;;
26082;SDS011;13848;49.018;12.078;2023-10-31T07:19:22;1.52;;;0.60;;
26082;SDS011;13848;49.018;12.078;2023-10-31T07:21:48;0.98;;;0.80;;
26082;SDS011;13848;49.018;12.078;2023-10-31T07:24:14;1.45;;;0.60;;
26082;SDS011;13848;49.018;12.078;2023-10-31T07:26:42;1.33;;;0.90;;
26082;SDS011;13848;49.018;12.078;2023-10-31T07:29:07;0.57;;;0.50;;
26082;SDS011;13848;49.018;12.078;2023-10-31T07:31:33;1.13;;;0.60;;
26082;SDS011;13848;49.018;12.078;2023-10-31T07:33:59;0.98;;;0.70;;
26082;SDS011;13848;49.018;12.078;2023-10-31T07:36:25;0.60;;;0.60;;
26082;SDS011;13848;49.018;12.078;2023-10-31T07:38:51;1.63;;;0.68;;
26082;SDS011;13848;49.018;12.078;2023-10-31T07:41:17;0.63;;;0.60;;
26082;SDS011;13848;49.018;12.078;2023-10-31T07:43:44;1.00;;;0.70;;
26082;SDS011;13848;49.018;12.078;2023-10-31T07:46:10;1.83;;;0.70;;
26082;SDS011;13848;49.018;12.078;2023-10-31T07:48:36;1.77;;;0.90;;
26082;SDS011;13848;49.018;12.078;2023-10-31T07:51:03;1.42;;;0.93;;
26082;SDS011;13848;49.018;12.078;2023-10-31T07:53:29;1.52;;;0.60;;
26082;SDS011;13848;49.018;12.078;2023-10-31T07:55:55;1.23;;;0.60;;
26082;SDS011;13848;49.018;12.078;2023-10-31T07:58:21;2.08;;;0.80;;
26082;SDS011;13848;49.018;12.078;2023-10-31T08:00:48;0.68;;;0.60;;
26082;SDS011;13848;49.018;12.078;2023-10-31T08:03:14;2.38;;;0.90;;
26082;SDS011;13848;49.018;12.078;2023-10-31T08:05:40;0.90;;;0.60;;
26082;SDS011;13848;49.018;12.078;2023-10-31T08:08:06;1.17;;;0.75;;
26082;SDS011;13848;49.018;12.078;2023-10-31T08:10:32;0.80;;;0.60;;
26082;SDS011;13848;49.018;12.078;2023-10-31T08:12:58;2.85;;;0.60;;
26082;SDS011;13848;49.018;12.078;2023-10-31T08:15:24;2.03;;;0.70;;
26082;SDS011;13848;49.018;12.078;2023-10-31T08:17:51;5.72;;;0.50;;
26082;SDS011;13848;49.018;12.078;2023-10-31T08:20:17;1.95;;;0.60;;
26082;SDS011;13848;49.018;12.078;2023-10-31T08:22:43;0.50;;;0.47;;
26082;SDS011;13848;49.018;12.078;2023-10-31T08:25:10;0.40;;;0.40;;
26082;SDS011;13848;49.018;12.078;2023-10-31T08:27:36;1.77;;;0.50;;
26082;SDS011;13848;49.018;12.078;2023-10-31T08:30:02;2.72;;;0.80;;
26082;SDS011;13848;49.018;12.078;2023-10-31T08:32:29;1.58;;;0.60;;
26082;SDS011;13848;49.018;12.078;2023-10-31T08:34:56;1.15;;;0.60;;
26082;SDS011;13848;49.018;12.078;2023-10-31T08:37:22;3.35;;;0.60;;
26082;SDS011;13848;49.018;12.078;2023-10-31T08:39:48;1.02;;;0.57;;
26082;SDS011;13848;49.018;12.078;2023-10-31T08:42:14;0.93;;;0.55;;
26082;SDS011;13848;49.018;12.078;2023-10-31T08:44:40;0.60;;;0.47;;
26082;SDS011;13848;49.018;12.078;2023-10-31T08:47:06;0.70;;;0.60;;
26082;SDS011;13848;49.018;12.078;2023-10-31T08:49:32;1.17;;;0.70;;
26082;SDS011;13848;49.018;12.078;2023-10-31T08:51:59;0.77;;;0.50;;
26082;SDS011;13848;49.018;12.078;2023-10-31T08:54:25;1.65;;;0.50;;
26082;SDS011;13848;49.018;12.078;2023-10-31T08:56:51;1.20;;;0.77;;
26082;SDS011;13848;49.018;12.078;2023-10-31T08:59:17;1.75;;;0.50;;
26082;SDS011;13848;49.018;12.078;2023-10-31T09:01:43;2.17;;;0.65;;
26082;SDS011;13848;49.018;12.078;2023-10-31T09:04:09;0.98;;;0.60;;
26082;SDS011;13848;49.018;12.078;2023-10-31T09:06:35;0.57;;;0.50;;
26082;SDS011;13848;49.018;12.078;2023-10-31T09:09:02;3.03;;;0.55;;
26082;SDS011;13848;49.018;12.078;2023-10-31T09:11:28;1.25;;;0.73;;
26082;SDS011;13848;49.018;12.078;2023-10-31T09:13:54;0.60;;;0.57;;
26082;SDS011;13848;49.018;12.078;2023-10-31T09:16:20;1.50;;;0.52;;
26082;SDS011;13848;49.018;12.078;2023-10-31T09:18:46;1.70;;;0.70;;
26082;SDS011;13848;49.018;12.078;2023-10-31T09:21:11;5.03;;;0.70;;
26082;SDS011;13848;49.018;12.078;2023-10-31T09:23:37;1.15;;;0.70;;
26082;SDS011;13848;49.018;12.078;2023-10-31T09:26:05;4.20;;;0.60;;
26082;SDS011;13848;49.018;12.078;2023-10-31T09:28:31;1.52;;;0.50;;
26082;SDS011;13848;49.018;12.078;2023-10-31T09:30:57;1.13;;;0.50;;
26082;SDS011;13848;49.018;12.078;2023-10-31T09:33:23;0.85;;;0.60;;
26082;SDS011;13848;49.018;12.078;2023-10-31T09:35:48;1.23;;;0.60;;
26082;SDS011;13848;49.018;12.078;2023-10-31T09:38:14;3.17;;;0.60;;
26082;SDS011;13848;49.018;12.078;2023-10-31T09:40:40;1.50;;;0.63;;
26082;SDS011;13848;49.018;12.078;2023-10-31T09:43:08;0.63;;;0.52;;
26082;SDS011;13848;49.018;12.078;2023-10-31T09:45:34;1.17;;;0.45;;
26082;SDS011;13848;49.018;12.078;2023-10-31T09:48:00;1.75;;;0.57;;
26082;SDS011;13848;49.018;12.078;2023-10-31T09:50:27;1.33;;;0.60;;
26082;SDS011;13848;49.018;12.078;2023-10-31T09:52:54;0.80;;;0.60;;
26082;SDS011;13848;49.018;12.078;2023-10-31T09:55:22;0.88;;;0.57;;
26082;SDS011;13848;49.018;12.078;2023-10-31T09:57:48;1.17;;;0.50;;
26082;SDS011;13848;49.018;12.078;2023-10-31T10:00:16;0.80;;;0.40;;
26082;SDS011;13848;49.018;12.078;2023-10-31T10:02:43;0.60;;;0.50;;
26082;SDS011;13848;49.018;12.078;2023-10-31T10:05:09;0.70;;;0.60;;
26082;SDS011;13848;49.018;12.078;2023-10-31T10:07:35;0.77;;;0.57;;
26082;SDS011;13848;49.018;12.078;2023-10-31T10:10:01;3.03;;;0.70;;
26082;SDS011;13848;49.018;12.078;2023-10-31T10:12:27;1.08;;;0.68;;
26082;SDS011;13848;49.018;12.078;2023-10-31T10:14:53;1.95;;;0.73;;
26082;SDS011;13848;49.018;12.078;2023-10-31T10:17:21;0.35;;;0.35;;
26082;SDS011;13848;49.018;12.078;2023-10-31T10:19:48;2.50;;;0.73;;
26082;SDS011;13848;49.018;12.078;2023-10-31T10:22:30;0.73;;;0.60;;
26082;SDS011;13848;49.018;12.078;2023-10-31T10:24:56;1.00;;;0.60;;
26082;SDS011;13848;49.018;12.078;2023-10-31T10:27:23;1.05;;;0.60;;
26082;SDS011;13848;49.018;12.078;2023-10-31T10:29:49;0.63;;;0.50;;
26082;SDS011;13848;49.018;12.078;2023-10-31T10:32:18;0.93;;;0.60;;
26082;SDS011;13848;49.018;12.078;2023-10-31T10:34:46;2.30;;;0.50;;
26082;SDS011;13848;49.018;12.078;2023-10-31T10:37:12;16.15;;;1.35;;
26082;SDS011;13848;49.018;12.078;2023-10-31T10:39:39;2.30;;;0.50;;
26082;SDS011;13848;49.018;12.078;2023-10-31T10:42:07;0.93;;;0.63;;
26082;SDS011;13848;49.018;12.078;2023-10-31T10:44:35;0.50;;;0.50;;
26082;SDS011;13848;49.018;12.078;2023-10-31T10:47:02;0.50;;;0.40;;
26082;SDS011;13848;49.018;12.078;2023-10-31T10:49:32;0.68;;;0.50;;
26082;SDS011;13848;49.018;12.078;2023-10-31T10:52:01;1.95;;;0.50;;
26082;SDS011;13848;49.018;12.078;2023-10-31T10:54:37;1.40;;;0.50;;
26082;SDS011;13848;49.018;12.078;2023-10-31T10:57:12;2.58;;;0.45;;
26082;SDS011;13848;49.018;12.078;2023-10-31T10:59:43;0.95;;;0.70;;
26082;SDS011;13848;49.018;12.078;2023-10-31T11:02:13;1.13;;;0.55;;
26082;SDS011;13848;49.018;12.078;2023-10-31T11:04:39;2.38;;;0.60;;
26082;SDS011;13848;49.018;12.078;2023-10-31T11:07:09;0.50;;;0.50;;
26082;SDS011;13848;49.018;12.078;2023-10-31T11:09:35;1.70;;;0.57;;
26082;SDS011;13848;49.018;12.078;2023-10-31T11:12:02;0.43;;;0.43;;
26082;SDS011;13848;49.018;12.078;2023-10-31T11:14:29;2.15;;;0.45;;
26082;SDS011;13848;49.018;12.078;2023-10-31T11:16:57;0.75;;;0.60;;
26082;SDS011;13848;49.018;12.078;2023-10-31T11:19:27;0.45;;;0.40;;
26082;SDS011;13848;49.018;12.078;2023-10-31T11:21:54;1.38;;;0.50;;
26082;SDS011;13848;49.018;12.078;2023-10-31T11:24:22;2.53;;;0.60;;
26082;SDS011;13848;49.018;12.078;2023-10-31T11:26:52;1.15;;;0.57;;
26082;SDS011;13848;49.018;12.078;2023-10-31T11:29:18;0.55;;;0.45;;
26082;SDS011;13848;49.018;12.078;2023-10-31T11:31:44;2.05;;;0.60;;
26082;SDS011;13848;49.018;12.078;2023-10-31T11:34:12;0.57;;;0.50;;
26082;SDS011;13848;49.018;12.078;2023-10-31T11:36:38;2.53;;;0.68;;
26082;SDS011;13848;49.018;12.078;2023-10-31T11:39:09;1.25;;;0.50;;
26082;SDS011;13848;49.018;12.078;2023-10-31T11:41:38;0.85;;;0.50;;
26082;SDS011;13848;49.018;12.078;2023-10-31T11:44:04;0.80;;;0.52;;
26082;SDS011;13848;49.018;12.078;2023-10-31T11:46:31;1.60;;;0.63;;
26082;SDS011;13848;49.018;12.078;2023-10-31T11:48:57;0.50;;;0.50;;
26082;SDS011;13848;49.018;12.078;2023-10-31T11:51:23;0.40;;;0.40;;
26082;SDS011;13848;49.018;12.078;2023-10-31T11:53:49;1.20;;;0.60;;
26082;SDS011;13848;49.018;12.078;2023-10-31T11:56:15;1.67;;;0.80;;
26082;SDS011;13848;49.018;12.078;2023-10-31T11:58:43;0.80;;;0.75;;
26082;SDS011;13848;49.018;12.078;2023-10-31T12:01:09;0.80;;;0.60;;
26082;SDS011;13848;49.018;12.078;2023-10-31T12:03:36;1.33;;;0.57;;
26082;SDS011;13848;49.018;12.078;2023-10-31T12:06:03;2.83;;;0.93;;
26082;SDS011;13848;49.018;12.078;2023-10-31T12:08:31;1.48;;;0.60;;
26082;SDS011;13848;49.018;12.078;2023-10-31T12:11:05;1.25;;;0.75;;
26082;SDS011;13848;49.018;12.078;2023-10-31T12:13:32;0.63;;;0.40;;
26082;SDS011;13848;49.018;12.078;2023-10-31T12:16:00;0.60;;;0.60;;
26082;SDS011;13848;49.018;12.078;2023-10-31T12:18:26;0.95;;;0.70;;
26082;SDS011;13848;49.018;12.078;2023-10-31T12:20:53;0.50;;;0.45;;
26082;SDS011;13848;49.018;12.078;2023-10-31T12:23:18;0.95;;;0.52;;
26082;SDS011;13848;49.018;12.078;2023-10-31T12:25:47;1.35;;;0.73;;
26082;SDS011;13848;49.018;12.078;2023-10-31T12:28:17;3.13;;;0.80;;
26082;SDS011;13848;49.018;12.078;2023-10-31T12:30:44;0.50;;;0.50;;
26082;SDS011;13848;49.018;12.078;2023-10-31T12:33:12;1.88;;;0.60;;
26082;SDS011;13848;49.018;12.078;2023-10-31T12:35:38;1.48;;;0.60;;
26082;SDS011;13848;49.018;12.078;2023-10-31T12:38:05;1.30;;;0.57;;
26082;SDS011;13848;49.018;12.078;2023-10-31T12:40:31;4.50;;;0.80;;
26082;SDS011;13848;49.018;12.078;2023-10-31T12:42:58;1.05;;;0.50;;
26082;SDS011;13848;49.018;12.078;2023-10-31T12:45:24;1.67;;;0.73;;
26082;SDS011;13848;49.018;12.078;2023-10-31T12:48:00;2.47;;;0.80;;
26082;SDS011;13848;49.018;12.078;2023-10-31T12:50:28;1.30;;;0.60;;
26082;SDS011;13848;49.018;12.078;2023-10-31T12:52:54;0.70;;;0.70;;
26082;SDS011;13848;49.018;12.078;2023-10-31T12:55:21;2.03;;;0.80;;
26082;SDS011;13848;49.018;12.078;2023-10-31T12:57:49;0.77;;;0.70;;
26082;SDS011;13848;49.018;12.078;2023-10-31T13:00:16;4.22;;;0.70;;
26082;SDS011;13848;49.018;12.078;2023-10-31T13:02:44;0.75;;;0.70;;
26082;SDS011;13848;49.018;12.078;2023-10-31T13:05:10;2.25;;;0.80;;
26082;SDS011;13848;49.018;12.078;2023-10-31T13:07:39;1.25;;;0.75;;
26082;SDS011;13848;49.018;12.078;2023-10-31T13:10:06;2.25;;;0.70;;
26082;SDS011;13848;49.018;12.078;2023-10-31T13:12:32;7.10;;;4.60;;
26082;SDS011;13848;49.018;12.078;2023-10-31T13:14:58;4.53;;;2.88;;
26082;SDS011;13848;49.018;12.078;2023-10-31T13:17:24;3.45;;;1.67;;
26082;SDS011;13848;49.018;12.078;2023-10-31T13:19:50;1.90;;;0.80;;
26082;SDS011;13848;49.018;12.078;2023-10-31T13:22:16;2.28;;;0.63;;
26082;SDS011;13848;49.018;12.078;2023-10-31T13:24:43;1.42;;;0.68;;
26082;SDS011;13848;49.018;12.078;2023-10-31T13:27:09;1.58;;;0.80;;
26082;SDS011;13848;49.018;12.078;2023-10-31T13:29:35;2.03;;;0.80;;
26082;SDS011;13848;49.018;12.078;2023-10-31T13:32:01;1.75;;;0.93;;
26082;SDS011;13848;49.018;12.078;2023-10-31T13:34:27;1.48;;;0.90;;
26082;SDS011;13848;49.018;12.078;2023-10-31T13:36:53;2.60;;;0.70;;
26082;SDS011;13848;49.018;12.078;2023-10-31T13:39:19;1.63;;;0.82;;
26082;SDS011;13848;49.018;12.078;2023-10-31T13:41:46;1.27;;;1.10;;
26082;SDS011;13848;49.018;12.078;2023-10-31T13:44:12;1.83;;;0.80;;
26082;SDS011;13848;49.018;12.078;2023-10-31T13:46:38;1.45;;;0.80;;
26082;SDS011;13848;49.018;12.078;2023-10-31T13:49:04;2.80;;;1.05;;
26082;SDS011;13848;49.018;12.078;2023-10-31T13:51:30;1.08;;;0.55;;
26082;SDS011;13848;49.018;12.078;2023-10-31T13:53:56;2.53;;;0.70;;
26082;SDS011;13848;49.018;12.078;2023-10-31T13:56:22;3.90;;;0.90;;
26082;SDS011;13848;49.018;12.078;2023-10-31T13:58:49;2.83;;;0.73;;
26082;SDS011;13848;49.018;12.078;2023-10-31T14:01:15;1.80;;;0.80;;
26082;SDS011;13848;49.018;12.078;2023-10-31T14:03:41;2.28;;;0.80;;
26082;SDS011;13848;49.018;12.078;2023-10-31T14:06:07;2.50;;;1.00;;
26082;SDS011;13848;49.018;12.078;2023-10-31T14:08:33;1.65;;;0.90;;
26082;SDS011;13848;49.018;12.078;2023-10-31T14:10:59;2.78;;;1.00;;
26082;SDS011;13848;49.018;12.078;2023-10-31T14:13:25;2.15;;;0.93;;
26082;SDS011;13848;49.018;12.078;2023-10-31T14:15:52;2.20;;;0.90;;
26082;SDS011;13848;49.018;12.078;2023-10-31T14:18:18;2.85;;;1.70;;
26082;SDS011;13848;49.018;12.078;2023-10-31T14:20:44;3.78;;;1.67;;
26082;SDS011;13848;49.018;12.078;2023-10-31T14:23:10;10.63;;;5.70;;
26082;SDS011;13848;49.018;12.078;2023-10-31T14:25:36;11.60;;;6.60;;
26082;SDS011;13848;49.018;12.078;2023-10-31T14:28:02;3.72;;;2.10;;